Time;durP1;ratioP1;P1;durP2;ratioP2;P2;SDS_P1;SDS_P2;PMS_P1;PMS_P2;Temp;Humidity;BMP_temperature;BMP_pressure;BME280_temperature;BME280_humidity;BME280_pressure;Samples;Min_cycle;Max_cycle;Signal;HPM_P1;HPM_P2
2022/07/29 00:01:20;;;;;;;0.70;0.30;;;;;;;;;;5078989;28;20075;-70
2022/07/29 00:03:49;;;;;;;0.30;0.30;;;;;;;;;;5073454;28;20075;-70
2022/07/29 00:06:17;;;;;;;0.10;0.10;;;;;;;;;;5073685;28;20068;-71
2022/07/29 00:08:46;;;;;;;0.30;0.22;;;;;;;;;;5084094;28;20044;-71
2022/07/29 00:11:15;;;;;;;0.20;0.20;;;;;;;;;;5083738;28;20091;-71
2022/07/29 00:13:44;;;;;;;0.13;0.13;;;;;;;;;;5078726;28;20072;-71
2022/07/29 00:16:18;;;;;;;0.63;0.32;;;;;;;;;;5066249;28;20086;-70
2022/07/29 00:18:46;;;;;;;0.35;0.17;;;;;;;;;;5060905;28;20152;-70
2022/07/29 00:21:15;;;;;;;0.30;0.20;;;;;;;;;;5064670;28;20083;-70
2022/07/29 00:23:43;;;;;;;0.10;0.10;;;;;;;;;;5062370;28;20070;-71
2022/07/29 00:26:12;;;;;;;0.17;0.10;;;;;;;;;;5073135;28;20155;-71
2022/07/29 00:28:41;;;;;;;0.10;0.00;;;;;;;;;;5076276;28;20133;-71
2022/07/29 00:31:10;;;;;;;0.30;0.25;;;;;;;;;;5086862;28;20119;-71
2022/07/29 00:33:38;;;;;;;0.43;0.30;;;;;;;;;;5087610;28;20491;-71
2022/07/29 00:36:06;;;;;;;0.17;0.17;;;;;;;;;;5077111;28;20078;-70
2022/07/29 00:38:34;;;;;;;0.30;0.30;;;;;;;;;;5065639;28;20045;-70
2022/07/29 00:41:05;;;;;;;0.25;0.20;;;;;;;;;;5063308;28;20037;-70
2022/07/29 00:43:33;;;;;;;0.40;0.38;;;;;;;;;;5062765;28;20116;-71
2022/07/29 00:46:06;;;;;;;0.20;0.15;;;;;;;;;;5061603;28;20083;-70
2022/07/29 00:48:34;;;;;;;0.30;0.10;;;;;;;;;;5068439;28;20143;-71
2022/07/29 00:51:07;;;;;;;0.20;0.20;;;;;;;;;;5056737;28;20055;-70
2022/07/29 00:53:35;;;;;;;0.40;0.40;;;;;;;;;;5056764;28;20047;-71
2022/07/29 00:56:06;;;;;;;0.25;0.25;;;;;;;;;;5056015;28;20688;-71
2022/07/29 00:58:34;;;;;;;0.82;0.30;;;;;;;;;;5057517;28;20078;-71
2022/07/29 01:01:07;;;;;;;0.52;0.28;;;;;;;;;;5060906;28;20041;-71
2022/07/29 01:03:35;;;;;;;0.40;0.10;;;;;;;;;;5056371;28;20048;-71
2022/07/29 01:06:07;;;;;;;0.45;0.30;;;;;;;;;;5058378;28;20048;-71
2022/07/29 01:08:35;;;;;;;0.20;0.20;;;;;;;;;;5065104;28;20051;-71
2022/07/29 01:11:07;;;;;;;0.32;0.32;;;;;;;;;;5064566;28;20579;-72
2022/07/29 01:13:35;;;;;;;1.65;0.30;;;;;;;;;;5064998;28;20044;-71
2022/07/29 01:16:12;;;;;;;0.32;0.30;;;;;;;;;;5066050;28;20479;-71
2022/07/29 01:18:43;;;;;;;0.10;0.10;;;;;;;;;;5064230;28;20048;-71
2022/07/29 01:21:23;;;;;;;0.60;0.38;;;;;;;;;;5062541;28;20076;-71
2022/07/29 01:24:01;;;;;;;0.65;0.57;;;;;;;;;;5058614;28;20127;-71
2022/07/29 01:26:41;;;;;;;0.10;0.10;;;;;;;;;;5069155;28;20082;-71
2022/07/29 01:29:13;;;;;;;1.25;0.45;;;;;;;;;;5077935;28;20058;-71
2022/07/29 01:31:45;;;;;;;0.35;0.25;;;;;;;;;;5084400;28;20503;-71
2022/07/29 01:34:29;;;;;;;0.20;0.20;;;;;;;;;;5079944;28;20461;-71
2022/07/29 01:37:02;;;;;;;0.15;0.15;;;;;;;;;;5065504;28;20103;-70
2022/07/29 01:39:33;;;;;;;0.10;0.10;;;;;;;;;;5052077;28;20049;-71
2022/07/29 01:42:05;;;;;;;0.20;0.20;;;;;;;;;;5063415;28;20459;-71
2022/07/29 01:44:37;;;;;;;0.98;0.43;;;;;;;;;;5055446;28;20127;-71
2022/07/29 01:47:08;;;;;;;0.40;0.20;;;;;;;;;;5074918;28;20044;-71
2022/07/29 01:49:38;;;;;;;0.50;0.20;;;;;;;;;;5085625;28;20135;-71
2022/07/29 01:52:09;;;;;;;0.13;0.13;;;;;;;;;;5084810;28;20153;-71
2022/07/29 01:54:42;;;;;;;0.55;0.40;;;;;;;;;;5086640;28;20048;-70
2022/07/29 01:57:17;;;;;;;0.35;0.35;;;;;;;;;;5073684;28;20071;-70
2022/07/29 01:59:48;;;;;;;0.45;0.38;;;;;;;;;;5073500;28;20041;-71
2022/07/29 02:02:17;;;;;;;1.98;0.50;;;;;;;;;;5072819;28;20054;-71
2022/07/29 02:04:48;;;;;;;0.40;0.40;;;;;;;;;;5068916;28;20513;-71
2022/07/29 02:07:18;;;;;;;0.20;0.20;;;;;;;;;;5061799;28;20211;-71
2022/07/29 02:09:47;;;;;;;0.25;0.22;;;;;;;;;;5067957;28;20044;-71
2022/07/29 02:12:16;;;;;;;0.73;0.68;;;;;;;;;;5064030;28;20400;-70
2022/07/29 02:14:49;;;;;;;0.22;0.22;;;;;;;;;;5066398;28;20049;-71
2022/07/29 02:17:22;;;;;;;0.30;0.30;;;;;;;;;;5066423;28;20132;-71
2022/07/29 02:19:50;;;;;;;0.32;0.30;;;;;;;;;;5061325;28;20135;-72
2022/07/29 02:22:20;;;;;;;0.15;0.15;;;;;;;;;;5065270;28;20138;-71
2022/07/29 02:24:50;;;;;;;1.45;0.30;;;;;;;;;;5067301;28;20501;-71
2022/07/29 02:27:20;;;;;;;0.57;0.57;;;;;;;;;;5080265;28;20052;-71
2022/07/29 02:29:50;;;;;;;0.25;0.25;;;;;;;;;;5077367;28;20463;-71
2022/07/29 02:32:19;;;;;;;0.22;0.20;;;;;;;;;;5085481;28;20076;-71
2022/07/29 02:34:48;;;;;;;0.32;0.32;;;;;;;;;;5077972;28;20097;-70
2022/07/29 02:37:17;;;;;;;0.28;0.28;;;;;;;;;;5063848;28;20140;-71
2022/07/29 02:39:47;;;;;;;0.47;0.38;;;;;;;;;;5061484;28;20542;-71
2022/07/29 02:42:17;;;;;;;0.20;0.20;;;;;;;;;;5058084;28;20132;-71
2022/07/29 02:44:46;;;;;;;0.30;0.30;;;;;;;;;;5066116;28;20119;-71
2022/07/29 02:47:19;;;;;;;0.28;0.28;;;;;;;;;;5081118;28;20211;-71
2022/07/29 02:49:53;;;;;;;0.35;0.25;;;;;;;;;;5084503;28;20083;-71
2022/07/29 02:52:23;;;;;;;0.22;0.17;;;;;;;;;;5080352;28;20044;-71
2022/07/29 02:54:55;;;;;;;0.10;0.10;;;;;;;;;;5081768;28;20131;-71
2022/07/29 02:57:42;;;;;;;0.28;0.22;;;;;;;;;;5077749;28;20140;-70
2022/07/29 03:00:23;;;;;;;0.63;0.30;;;;;;;;;;5072158;28;20234;-71
2022/07/29 03:02:55;;;;;;;0.20;0.20;;;;;;;;;;5077965;28;20393;-71
2022/07/29 03:05:24;;;;;;;0.20;0.20;;;;;;;;;;5072240;28;20366;-70
2022/07/29 03:08:02;;;;;;;0.68;0.30;;;;;;;;;;5074956;28;20478;-70
2022/07/29 03:10:31;;;;;;;1.08;0.22;;;;;;;;;;5077650;28;20047;-70
2022/07/29 03:12:59;;;;;;;0.30;0.30;;;;;;;;;;5081264;28;20067;-71
2022/07/29 03:15:28;;;;;;;0.10;0.10;;;;;;;;;;5076671;28;20483;-72
2022/07/29 03:17:58;;;;;;;1.75;0.75;;;;;;;;;;5063060;28;20461;-70
2022/07/29 03:20:27;;;;;;;0.20;0.15;;;;;;;;;;5067433;28;20131;-70
2022/07/29 03:22:56;;;;;;;0.35;0.35;;;;;;;;;;5065665;28;20135;-71
2022/07/29 03:25:24;;;;;;;0.47;0.30;;;;;;;;;;5058416;28;20154;-71
2022/07/29 03:27:53;;;;;;;0.40;0.22;;;;;;;;;;5074652;28;20458;-71
2022/07/29 03:30:21;;;;;;;0.28;0.17;;;;;;;;;;5067605;28;20106;-70
2022/07/29 03:32:51;;;;;;;0.30;0.30;;;;;;;;;;5082009;28;20048;-71
2022/07/29 03:35:22;;;;;;;0.73;0.30;;;;;;;;;;5081410;28;20148;-71
2022/07/29 03:37:50;;;;;;;0.25;0.25;;;;;;;;;;5068640;28;20475;-70
2022/07/29 03:40:21;;;;;;;0.47;0.32;;;;;;;;;;5064166;28;20082;-71
2022/07/29 03:42:51;;;;;;;0.55;0.47;;;;;;;;;;5062281;28;20793;-71
2022/07/29 03:45:20;;;;;;;0.32;0.20;;;;;;;;;;5066481;28;20334;-71
2022/07/29 03:47:50;;;;;;;0.30;0.20;;;;;;;;;;5088356;28;20131;-71
2022/07/29 03:50:25;;;;;;;1.15;0.22;;;;;;;;;;5080918;28;20516;-70
2022/07/29 03:52:54;;;;;;;1.42;0.52;;;;;;;;;;5086415;28;20681;-70
2022/07/29 03:55:22;;;;;;;0.40;0.38;;;;;;;;;;5081193;28;20058;-70
2022/07/29 03:57:51;;;;;;;0.43;0.25;;;;;;;;;;5079318;28;20464;-71
2022/07/29 04:00:20;;;;;;;3.03;0.38;;;;;;;;;;5077342;28;20201;-71
2022/07/29 04:02:49;;;;;;;0.63;0.43;;;;;;;;;;5084029;28;20083;-71
2022/07/29 04:05:17;;;;;;;0.47;0.20;;;;;;;;;;5076374;28;20055;-70
2022/07/29 04:07:47;;;;;;;0.17;0.17;;;;;;;;;;5080402;28;20131;-71
2022/07/29 04:10:16;;;;;;;0.32;0.22;;;;;;;;;;5082222;28;20123;-71
2022/07/29 04:12:58;;;;;;;1.45;0.50;;;;;;;;;;5081628;28;20036;-71
2022/07/29 04:15:28;;;;;;;0.82;0.45;;;;;;;;;;5068857;28;20056;-71
2022/07/29 04:17:59;;;;;;;0.52;0.32;;;;;;;;;;5058918;28;20040;-71
2022/07/29 04:20:27;;;;;;;1.25;0.50;;;;;;;;;;5065062;28;20082;-70
2022/07/29 04:22:57;;;;;;;0.70;0.28;;;;;;;;;;5072335;28;20083;-71
2022/07/29 04:25:25;;;;;;;0.15;0.15;;;;;;;;;;5066979;28;20123;-71
2022/07/29 04:28:03;;;;;;;0.30;0.22;;;;;;;;;;5064548;28;20380;-71
2022/07/29 04:30:32;;;;;;;0.30;0.25;;;;;;;;;;5067691;28;20048;-71
2022/07/29 04:33:01;;;;;;;0.10;0.10;;;;;;;;;;5064459;28;20044;-71
2022/07/29 04:35:29;;;;;;;0.57;0.28;;;;;;;;;;5065857;28;20050;-70
2022/07/29 04:38:07;;;;;;;5.20;0.60;;;;;;;;;;5061794;28;20574;-71
2022/07/29 04:40:44;;;;;;;0.20;0.20;;;;;;;;;;5064679;28;20045;-71
2022/07/29 04:43:14;;;;;;;0.30;0.30;;;;;;;;;;5064154;28;20355;-71
2022/07/29 04:45:43;;;;;;;0.45;0.35;;;;;;;;;;5063376;28;20106;-71
2022/07/29 04:48:11;;;;;;;0.20;0.20;;;;;;;;;;5066981;28;20559;-70
2022/07/29 04:50:39;;;;;;;3.67;0.52;;;;;;;;;;5061306;28;20060;-71
2022/07/29 04:53:09;;;;;;;0.25;0.25;;;;;;;;;;5061767;28;20044;-71
2022/07/29 04:55:38;;;;;;;0.20;0.20;;;;;;;;;;5064449;28;20048;-70
2022/07/29 04:58:07;;;;;;;0.20;0.20;;;;;;;;;;5054737;28;20069;-71
2022/07/29 05:00:35;;;;;;;0.30;0.30;;;;;;;;;;5061424;28;20094;-71
2022/07/29 05:03:04;;;;;;;0.43;0.43;;;;;;;;;;5065792;28;20051;-71
2022/07/29 05:05:32;;;;;;;0.40;0.20;;;;;;;;;;5055591;28;20045;-71
2022/07/29 05:08:01;;;;;;;0.13;0.13;;;;;;;;;;5052100;28;20434;-71
2022/07/29 05:10:30;;;;;;;0.30;0.30;;;;;;;;;;5058567;28;20048;-71
2022/07/29 05:12:59;;;;;;;0.80;0.70;;;;;;;;;;5057741;28;20446;-71
2022/07/29 05:15:27;;;;;;;0.32;0.32;;;;;;;;;;5062855;28;20048;-71
2022/07/29 05:17:55;;;;;;;0.50;0.40;;;;;;;;;;5079089;28;20045;-71
2022/07/29 05:20:27;;;;;;;0.28;0.28;;;;;;;;;;5081130;28;20436;-70
2022/07/29 05:22:56;;;;;;;0.25;0.20;;;;;;;;;;5079401;28;20052;-71
2022/07/29 05:25:26;;;;;;;0.47;0.43;;;;;;;;;;5076935;28;20076;-71
2022/07/29 05:28:12;;;;;;;0.30;0.30;;;;;;;;;;5061543;28;20402;-71
2022/07/29 05:30:40;;;;;;;0.30;0.30;;;;;;;;;;5054318;28;20172;-71
2022/07/29 05:33:09;;;;;;;0.20;0.20;;;;;;;;;;5059184;28;20084;-71
2022/07/29 05:35:58;;;;;;;0.28;0.28;;;;;;;;;;5063045;28;20615;-71
2022/07/29 05:38:28;;;;;;;0.20;0.20;;;;;;;;;;5078241;28;20055;-71
2022/07/29 05:40:58;;;;;;;0.35;0.28;;;;;;;;;;5077293;28;20349;-71
2022/07/29 05:43:28;;;;;;;0.30;0.20;;;;;;;;;;5069660;28;20044;-71
2022/07/29 05:45:57;;;;;;;0.73;0.28;;;;;;;;;;5070588;28;20056;-71
2022/07/29 05:48:26;;;;;;;0.28;0.28;;;;;;;;;;5055009;28;20089;-72
2022/07/29 05:50:55;;;;;;;0.52;0.20;;;;;;;;;;5056443;28;20080;-71
2022/07/29 05:53:24;;;;;;;0.20;0.20;;;;;;;;;;5054209;28;20053;-70
2022/07/29 05:55:52;;;;;;;0.70;0.30;;;;;;;;;;5060080;28;20540;-72
2022/07/29 05:58:21;;;;;;;0.10;0.10;;;;;;;;;;5073713;28;20143;-71
2022/07/29 06:00:50;;;;;;;0.13;0.08;;;;;;;;;;5064891;28;20047;-72
2022/07/29 06:03:19;;;;;;;0.30;0.22;;;;;;;;;;5067107;28;20120;-70
2022/07/29 06:05:47;;;;;;;0.10;0.10;;;;;;;;;;5067015;28;20051;-71
2022/07/29 06:08:16;;;;;;;0.40;0.38;;;;;;;;;;5076188;28;20492;-71
2022/07/29 06:10:45;;;;;;;0.17;0.10;;;;;;;;;;5074565;28;20503;-71
2022/07/29 06:13:15;;;;;;;0.38;0.17;;;;;;;;;;5075475;28;20139;-71
2022/07/29 06:15:44;;;;;;;0.10;0.10;;;;;;;;;;5066529;28;20068;-72
2022/07/29 06:18:15;;;;;;;0.50;0.50;;;;;;;;;;5057845;28;20160;-71
2022/07/29 06:20:43;;;;;;;0.73;0.40;;;;;;;;;;5054828;28;20132;-71
2022/07/29 06:23:11;;;;;;;1.98;0.20;;;;;;;;;;5057794;28;20049;-71
2022/07/29 06:25:41;;;;;;;0.75;0.22;;;;;;;;;;5061418;28;20256;-72
2022/07/29 06:28:09;;;;;;;0.30;0.25;;;;;;;;;;5056962;28;20071;-71
2022/07/29 06:30:38;;;;;;;0.50;0.30;;;;;;;;;;5065333;28;20135;-71
2022/07/29 06:33:06;;;;;;;0.13;0.10;;;;;;;;;;5065378;28;20059;-72
2022/07/29 06:35:38;;;;;;;0.45;0.20;;;;;;;;;;5065246;28;20072;-71
2022/07/29 06:38:11;;;;;;;0.65;0.43;;;;;;;;;;5061849;28;20068;-71
2022/07/29 06:41:05;;;;;;;0.25;0.25;;;;;;;;;;5062550;28;20624;-71
2022/07/29 06:43:37;;;;;;;1.20;0.30;;;;;;;;;;5061291;28;20385;-71
2022/07/29 06:46:20;;;;;;;1.17;0.75;;;;;;;;;;5064679;28;20110;-71
2022/07/29 06:48:49;;;;;;;0.75;0.63;;;;;;;;;;5062224;28;20052;-70
2022/07/29 06:51:20;;;;;;;0.45;0.43;;;;;;;;;;5051542;28;20063;-70
2022/07/29 06:53:51;;;;;;;0.20;0.13;;;;;;;;;;5057104;28;20048;-70
2022/07/29 06:56:28;;;;;;;0.80;0.35;;;;;;;;;;5053802;28;20159;-70
2022/07/29 06:58:56;;;;;;;0.60;0.32;;;;;;;;;;5060465;28;20131;-70
2022/07/29 07:01:25;;;;;;;0.73;0.43;;;;;;;;;;5058363;28;20050;-70
2022/07/29 07:03:53;;;;;;;0.05;0.05;;;;;;;;;;5060245;28;20052;-70
2022/07/29 07:06:23;;;;;;;1.38;0.85;;;;;;;;;;5054780;28;20137;-70
2022/07/29 07:08:51;;;;;;;0.50;0.40;;;;;;;;;;5055387;28;20110;-70
2022/07/29 07:11:20;;;;;;;1.77;0.30;;;;;;;;;;5059418;28;20100;-70
2022/07/29 07:13:48;;;;;;;0.10;0.10;;;;;;;;;;5061388;28;20123;-70
2022/07/29 07:16:17;;;;;;;0.17;0.17;;;;;;;;;;5062864;28;20381;-70
2022/07/29 07:18:45;;;;;;;0.15;0.15;;;;;;;;;;5059989;28;20079;-70
2022/07/29 07:21:14;;;;;;;2.45;0.40;;;;;;;;;;5060593;28;20053;-71
2022/07/29 07:23:48;;;;;;;0.47;0.25;;;;;;;;;;5053645;28;20048;-70
2022/07/29 07:26:17;;;;;;;0.65;0.43;;;;;;;;;;5052158;28;20052;-71
2022/07/29 07:28:45;;;;;;;0.45;0.40;;;;;;;;;;5058875;28;20075;-70
2022/07/29 07:31:14;;;;;;;0.28;0.28;;;;;;;;;;5063768;28;20056;-70
2022/07/29 07:33:42;;;;;;;0.85;0.60;;;;;;;;;;5052467;28;20060;-70
2022/07/29 07:36:11;;;;;;;0.35;0.32;;;;;;;;;;5058906;28;20044;-70
2022/07/29 07:38:39;;;;;;;0.50;0.40;;;;;;;;;;5058695;28;20151;-70
2022/07/29 07:41:10;;;;;;;0.20;0.20;;;;;;;;;;5057818;28;20126;-70
2022/07/29 07:43:38;;;;;;;0.70;0.50;;;;;;;;;;5053702;28;20892;-71
2022/07/29 07:46:07;;;;;;;1.20;0.43;;;;;;;;;;5065495;28;20052;-70
2022/07/29 07:48:36;;;;;;;0.95;0.82;;;;;;;;;;5075008;28;20047;-70
2022/07/29 07:51:08;;;;;;;0.68;0.43;;;;;;;;;;5085405;28;20040;-71
2022/07/29 07:53:36;;;;;;;4.82;0.30;;;;;;;;;;5077121;28;20047;-70
2022/07/29 07:56:09;;;;;;;0.10;0.10;;;;;;;;;;5078207;28;20052;-71
2022/07/29 07:58:39;;;;;;;;;;;;;;;;;;5081873;28;20495;-70
2022/07/29 08:01:08;;;;;;;0.35;0.32;;;;;;;;;;5081013;28;19931;-70
2022/07/29 08:03:37;;;;;;;0.93;0.70;;;;;;;;;;5079528;28;20389;-70
2022/07/29 08:06:08;;;;;;;0.85;0.57;;;;;;;;;;5078852;28;20036;-71
2022/07/29 08:08:37;;;;;;;0.98;0.75;;;;;;;;;;5076242;28;20531;-70
2022/07/29 08:11:10;;;;;;;1.08;0.55;;;;;;;;;;5064261;28;20132;-71
2022/07/29 08:13:38;;;;;;;1.05;0.75;;;;;;;;;;5076712;28;20269;-71
2022/07/29 08:16:14;;;;;;;0.10;0.10;;;;;;;;;;5067981;28;20414;-71
2022/07/29 08:18:44;;;;;;;0.60;0.30;;;;;;;;;;5062244;28;20051;-71
2022/07/29 08:21:13;;;;;;;1.02;0.38;;;;;;;;;;5057693;28;20333;-71
2022/07/29 08:23:48;;;;;;;0.90;0.47;;;;;;;;;;5057845;28;20558;-71
2022/07/29 08:26:28;;;;;;;0.10;0.10;;;;;;;;;;5064839;28;20134;-71
2022/07/29 08:28:57;;;;;;;0.47;0.30;;;;;;;;;;5066557;28;20299;-71
2022/07/29 08:31:25;;;;;;;0.30;0.30;;;;;;;;;;5064063;28;20045;-71
2022/07/29 08:33:55;;;;;;;0.50;0.30;;;;;;;;;;5060834;28;20048;-71
2022/07/29 08:36:26;;;;;;;3.40;0.60;;;;;;;;;;5074233;28;20110;-71
2022/07/29 08:38:54;;;;;;;0.85;0.35;;;;;;;;;;5077336;28;20048;-71
2022/07/29 08:41:23;;;;;;;0.40;0.40;;;;;;;;;;5080164;28;20099;-71
2022/07/29 08:43:53;;;;;;;0.68;0.43;;;;;;;;;;5069651;28;20052;-71
2022/07/29 08:46:22;;;;;;;0.47;0.25;;;;;;;;;;5066609;28;20057;-72
2022/07/29 08:48:51;;;;;;;1.08;0.70;;;;;;;;;;5066241;28;20044;-73
2022/07/29 08:51:20;;;;;;;0.47;0.30;;;;;;;;;;5060359;28;20656;-72
2022/07/29 08:53:50;;;;;;;0.93;0.68;;;;;;;;;;5058630;28;20808;-71
2022/07/29 08:56:19;;;;;;;0.40;0.40;;;;;;;;;;5064306;28;20573;-72
2022/07/29 08:58:48;;;;;;;0.28;0.28;;;;;;;;;;5072228;28;20051;-71
2022/07/29 09:01:23;;;;;;;0.68;0.60;;;;;;;;;;5072851;28;20404;-71
2022/07/29 09:04:05;;;;;;;0.73;0.50;;;;;;;;;;5067305;28;20128;-72
2022/07/29 09:06:36;;;;;;;0.43;0.43;;;;;;;;;;5064496;28;20083;-72
2022/07/29 09:09:05;;;;;;;1.05;0.52;;;;;;;;;;5063617;28;20044;-72
2022/07/29 09:11:34;;;;;;;0.50;0.38;;;;;;;;;;5058539;28;20128;-72
2022/07/29 09:14:03;;;;;;;0.50;0.50;;;;;;;;;;5057014;28;20996;-72
2022/07/29 09:16:47;;;;;;;1.33;0.85;;;;;;;;;;5060248;28;20094;-72
2022/07/29 09:19:21;;;;;;;0.80;0.60;;;;;;;;;;5053162;28;20052;-74
2022/07/29 09:21:59;;;;;;;0.43;0.43;;;;;;;;;;5058121;28;20553;-73
2022/07/29 09:24:43;;;;;;;0.35;0.30;;;;;;;;;;5064888;28;20049;-75
2022/07/29 09:27:13;;;;;;;0.30;0.30;;;;;;;;;;5068123;28;20048;-73
2022/07/29 09:29:42;;;;;;;11.90;0.75;;;;;;;;;;5067688;28;20131;-70
2022/07/29 09:32:12;;;;;;;1.25;0.65;;;;;;;;;;5066388;28;20048;-69
2022/07/29 09:34:40;;;;;;;0.77;0.77;;;;;;;;;;5069169;28;20052;-69
2022/07/29 09:37:11;;;;;;;1.27;0.60;;;;;;;;;;5066423;28;20057;-69
2022/07/29 09:39:45;;;;;;;0.85;0.40;;;;;;;;;;5065880;28;20048;-70
2022/07/29 09:42:14;;;;;;;0.30;0.30;;;;;;;;;;5062409;28;20048;-72
2022/07/29 09:44:45;;;;;;;1.20;0.60;;;;;;;;;;5058815;28;20044;-70
2022/07/29 09:47:14;;;;;;;0.50;0.40;;;;;;;;;;5065101;28;20080;-70
2022/07/29 09:49:53;;;;;;;1.15;0.50;;;;;;;;;;5064273;28;20045;-70
2022/07/29 09:52:23;;;;;;;3.22;0.47;;;;;;;;;;5065284;28;20048;-70
2022/07/29 09:54:53;;;;;;;0.45;0.40;;;;;;;;;;5058715;28;20079;-72
2022/07/29 09:57:27;;;;;;;0.82;0.60;;;;;;;;;;5063965;28;20060;-70
2022/07/29 09:59:59;;;;;;;1.00;0.60;;;;;;;;;;5062926;28;20075;-70
2022/07/29 10:02:33;;;;;;;0.95;0.57;;;;;;;;;;5056806;28;20055;-70
2022/07/29 10:05:02;;;;;;;0.88;0.60;;;;;;;;;;5064678;28;20102;-70
2022/07/29 10:07:44;;;;;;;0.85;0.60;;;;;;;;;;5084511;28;20180;-70
2022/07/29 10:10:23;;;;;;;2.03;0.88;;;;;;;;;;5077850;28;20368;-70
2022/07/29 10:12:53;;;;;;;0.40;0.40;;;;;;;;;;5082878;28;20055;-70
2022/07/29 10:15:23;;;;;;;1.23;0.52;;;;;;;;;;5081583;28;20051;-70
2022/07/29 10:17:53;;;;;;;0.43;0.43;;;;;;;;;;5084475;28;20093;-73
2022/07/29 10:20:22;;;;;;;0.70;0.50;;;;;;;;;;5080037;28;20048;-70
2022/07/29 10:22:51;;;;;;;0.68;0.50;;;;;;;;;;5085312;28;20123;-70
2022/07/29 10:25:23;;;;;;;1.17;0.57;;;;;;;;;;5074655;28;20059;-70
2022/07/29 10:27:52;;;;;;;0.50;0.50;;;;;;;;;;5085466;28;20097;-69
2022/07/29 10:30:22;;;;;;;1.67;0.60;;;;;;;;;;5084813;28;20137;-69
2022/07/29 10:33:11;;;;;;;0.88;0.63;;;;;;;;;;5085622;28;20139;-70
2022/07/29 10:35:49;;;;;;;0.88;0.68;;;;;;;;;;5085288;28;20050;-69
2022/07/29 10:38:27;;;;;;;0.88;0.65;;;;;;;;;;5084029;28;20503;-70
2022/07/29 10:43:50;;;;;;;1.13;0.80;;;;;;;;;;5066960;28;20551;-69
2022/07/29 10:46:19;;;;;;;0.93;0.70;;;;;;;;;;5077174;28;20393;-69
2022/07/29 10:49:09;;;;;;;2.15;0.70;;;;;;;;;;5077689;28;20071;-69
2022/07/29 10:51:57;;;;;;;0.63;0.50;;;;;;;;;;5074629;28;20499;-69
2022/07/29 10:54:43;;;;;;;0.70;0.63;;;;;;;;;;5079165;28;20052;-69
2022/07/29 10:57:21;;;;;;;1.88;0.88;;;;;;;;;;5080787;28;20090;-69
2022/07/29 11:00:29;;;;;;;1.15;0.70;;;;;;;;;;5082704;28;20701;-69
2022/07/29 11:03:00;;;;;;;1.58;0.93;;;;;;;;;;5083725;28;20120;-69
2022/07/29 11:05:57;;;;;;;1.10;0.60;;;;;;;;;;5087660;28;20068;-69
2022/07/29 11:08:46;;;;;;;1.52;0.75;;;;;;;;;;5080733;28;20135;-70
2022/07/29 11:11:41;;;;;;;0.60;0.60;;;;;;;;;;5080846;28;20049;-68
2022/07/29 11:14:15;;;;;;;0.38;0.38;;;;;;;;;;5074106;28;20094;-69
2022/07/29 11:17:03;;;;;;;0.73;0.63;;;;;;;;;;5080202;28;20036;-68
2022/07/29 11:19:34;;;;;;;2.00;0.60;;;;;;;;;;5070135;28;20077;-70
2022/07/29 11:22:04;;;;;;;1.90;0.80;;;;;;;;;;5075438;28;20051;-69
2022/07/29 11:24:34;;;;;;;0.80;0.63;;;;;;;;;;5081264;28;20050;-69
2022/07/29 11:27:07;;;;;;;0.80;0.52;;;;;;;;;;5061515;28;20450;-68
2022/07/29 11:29:37;;;;;;;0.82;0.70;;;;;;;;;;5066807;28;20075;-69
2022/07/29 11:32:11;;;;;;;0.57;0.50;;;;;;;;;;5056828;28;20048;-69
2022/07/29 11:34:50;;;;;;;0.52;0.45;;;;;;;;;;5064055;28;20496;-69
2022/07/29 11:37:24;;;;;;;1.05;0.55;;;;;;;;;;5077823;28;20102;-69
2022/07/29 11:40:26;;;;;;;0.68;0.60;;;;;;;;;;5080094;28;20396;-69
2022/07/29 11:42:54;;;;;;;1.25;0.70;;;;;;;;;;5078924;28;20089;-69
2022/07/29 11:45:27;;;;;;;1.00;0.60;;;;;;;;;;5085315;28;20070;-69
2022/07/29 11:48:17;;;;;;;0.50;0.50;;;;;;;;;;5081845;28;20504;-69
2022/07/29 11:50:59;;;;;;;0.32;0.32;;;;;;;;;;5075908;28;20048;-68
2022/07/29 11:53:29;;;;;;;0.32;0.30;;;;;;;;;;5082839;28;20045;-69
2022/07/29 11:56:00;;;;;;;0.88;0.50;;;;;;;;;;5082559;28;20132;-69
2022/07/29 11:58:32;;;;;;;0.88;0.50;;;;;;;;;;5087528;28;20048;-69
2022/07/29 12:01:01;;;;;;;0.65;0.50;;;;;;;;;;5090985;28;20052;-69
2022/07/29 12:03:34;;;;;;;0.73;0.50;;;;;;;;;;5088258;28;20048;-69
2022/07/29 12:06:06;;;;;;;0.60;0.60;;;;;;;;;;5070585;28;20505;-68
2022/07/29 12:08:42;;;;;;;7.03;0.57;;;;;;;;;;5065316;28;20606;-69
2022/07/29 12:11:16;;;;;;;0.77;0.50;;;;;;;;;;5066458;28;20492;-69
2022/07/29 12:13:48;;;;;;;0.90;0.90;;;;;;;;;;5064430;28;20155;-69
2022/07/29 12:16:17;;;;;;;0.45;0.45;;;;;;;;;;5079687;28;20075;-69
2022/07/29 12:19:00;;;;;;;0.73;0.50;;;;;;;;;;5083096;28;20101;-68
2022/07/29 12:21:30;;;;;;;0.63;0.60;;;;;;;;;;5087886;28;20063;-69
2022/07/29 12:24:00;;;;;;;1.05;0.55;;;;;;;;;;5079902;28;20040;-69
2022/07/29 12:26:36;;;;;;;0.70;0.55;;;;;;;;;;5073925;28;20534;-69
2022/07/29 12:29:07;;;;;;;0.47;0.47;;;;;;;;;;5080506;28;20051;-69
2022/07/29 12:31:42;;;;;;;0.50;0.38;;;;;;;;;;5072915;28;20052;-69
2022/07/29 12:34:13;;;;;;;0.60;0.60;;;;;;;;;;5082216;28;20048;-69
2022/07/29 12:36:42;;;;;;;1.48;0.73;;;;;;;;;;5070981;28;20679;-69
2022/07/29 12:39:13;;;;;;;0.77;0.60;;;;;;;;;;5058531;28;20045;-69
2022/07/29 12:41:41;;;;;;;0.50;0.30;;;;;;;;;;5065014;28;20425;-69
2022/07/29 12:44:10;;;;;;;1.27;1.00;;;;;;;;;;5059247;28;20577;-69
2022/07/29 12:46:38;;;;;;;1.40;0.32;;;;;;;;;;5069977;28;20040;-69
2022/07/29 12:49:07;;;;;;;0.50;0.45;;;;;;;;;;5079121;28;20318;-69
2022/07/29 12:51:38;;;;;;;0.32;0.32;;;;;;;;;;5080167;28;20045;-69
2022/07/29 12:54:08;;;;;;;0.50;0.50;;;;;;;;;;5077926;28;20060;-69
2022/07/29 12:56:38;;;;;;;1.77;0.55;;;;;;;;;;5079874;28;20040;-69
2022/07/29 12:59:15;;;;;;;0.40;0.40;;;;;;;;;;5076689;28;20175;-69
2022/07/29 13:01:44;;;;;;;1.05;0.80;;;;;;;;;;5079119;28;20084;-68
2022/07/29 13:04:13;;;;;;;1.73;1.23;;;;;;;;;;5079492;28;20123;-69
2022/07/29 13:06:42;;;;;;;0.57;0.52;;;;;;;;;;5071399;28;20412;-68
2022/07/29 13:09:14;;;;;;;1.08;0.45;;;;;;;;;;5063663;28;20484;-69
2022/07/29 13:11:45;;;;;;;1.60;0.70;;;;;;;;;;5065943;28;20086;-69
2022/07/29 13:14:30;;;;;;;1.42;0.68;;;;;;;;;;5062594;28;20091;-68
2022/07/29 13:17:03;;;;;;;0.75;0.60;;;;;;;;;;5075582;28;20048;-68
2022/07/29 13:19:35;;;;;;;0.70;0.55;;;;;;;;;;5075345;28;20167;-68
2022/07/29 13:22:04;;;;;;;0.70;0.52;;;;;;;;;;5076125;28;20059;-69
2022/07/29 13:24:32;;;;;;;0.75;0.55;;;;;;;;;;5074574;28;20075;-68
2022/07/29 13:27:02;;;;;;;0.43;0.30;;;;;;;;;;5074108;28;20127;-69
2022/07/29 13:29:33;;;;;;;0.95;0.50;;;;;;;;;;5076144;28;20123;-69
2022/07/29 13:32:01;;;;;;;5.57;0.63;;;;;;;;;;5071367;28;20128;-69
2022/07/29 13:34:30;;;;;;;0.65;0.65;;;;;;;;;;5079555;28;20093;-70
2022/07/29 13:36:59;;;;;;;1.40;0.80;;;;;;;;;;5076897;28;20044;-69
2022/07/29 13:39:27;;;;;;;1.08;0.70;;;;;;;;;;5076662;28;20044;-68
2022/07/29 13:41:56;;;;;;;1.77;0.80;;;;;;;;;;5079268;28;20143;-69
2022/07/29 13:44:26;;;;;;;0.85;0.60;;;;;;;;;;5077105;28;20063;-71
2022/07/29 13:46:55;;;;;;;0.40;0.40;;;;;;;;;;5060967;28;20078;-70
2022/07/29 13:49:23;;;;;;;1.13;0.60;;;;;;;;;;5055162;28;20079;-70
2022/07/29 13:51:52;;;;;;;1.10;0.60;;;;;;;;;;5062441;28;20052;-70
2022/07/29 13:54:21;;;;;;;1.33;0.70;;;;;;;;;;5058744;28;20542;-69
2022/07/29 13:56:49;;;;;;;0.73;0.47;;;;;;;;;;5055382;28;20149;-70
2022/07/29 13:59:18;;;;;;;0.57;0.50;;;;;;;;;;5065367;28;20355;-69
2022/07/29 14:01:47;;;;;;;1.20;0.60;;;;;;;;;;5061843;28;20500;-69
2022/07/29 14:04:16;;;;;;;1.05;0.68;;;;;;;;;;5058013;28;20468;-70
2022/07/29 14:06:45;;;;;;;0.82;0.52;;;;;;;;;;5065554;28;20055;-69
2022/07/29 14:09:14;;;;;;;0.50;0.50;;;;;;;;;;5080487;28;20055;-69
2022/07/29 14:11:43;;;;;;;0.45;0.30;;;;;;;;;;5078715;28;20093;-69
2022/07/29 14:14:12;;;;;;;0.75;0.60;;;;;;;;;;5078715;28;20055;-69
2022/07/29 14:16:40;;;;;;;1.55;1.20;;;;;;;;;;5083397;28;20488;-70
2022/07/29 14:19:19;;;;;;;0.60;0.50;;;;;;;;;;5076076;28;20044;-69
2022/07/29 14:21:47;;;;;;;0.43;0.40;;;;;;;;;;5072955;28;20127;-68
2022/07/29 14:24:17;;;;;;;0.35;0.35;;;;;;;;;;5077984;28;20044;-70
2022/07/29 14:26:51;;;;;;;0.52;0.40;;;;;;;;;;5079763;28;20569;-68
2022/07/29 14:29:19;;;;;;;1.40;0.70;;;;;;;;;;5076464;28;20049;-69
2022/07/29 14:31:47;;;;;;;0.50;0.32;;;;;;;;;;5073322;28;20076;-69
2022/07/29 14:34:16;;;;;;;0.50;0.50;;;;;;;;;;5077870;28;20459;-69
2022/07/29 14:36:46;;;;;;;1.17;0.40;;;;;;;;;;5075320;28;20127;-70
2022/07/29 14:39:15;;;;;;;0.68;0.57;;;;;;;;;;5078985;28;20381;-69
2022/07/29 14:41:44;;;;;;;0.40;0.40;;;;;;;;;;5075069;28;20040;-71
2022/07/29 14:44:12;;;;;;;2.35;0.88;;;;;;;;;;5081559;28;20048;-69
2022/07/29 14:46:42;;;;;;;0.68;0.50;;;;;;;;;;5062081;28;20117;-75
2022/07/29 14:49:14;;;;;;;0.35;0.35;;;;;;;;;;5058221;28;20052;-70
2022/07/29 14:51:43;;;;;;;0.65;0.55;;;;;;;;;;5060096;28;20743;-70
2022/07/29 14:54:13;;;;;;;0.88;0.47;;;;;;;;;;5058865;28;20140;-71
2022/07/29 14:56:41;;;;;;;0.90;0.70;;;;;;;;;;5073659;28;20155;-70
2022/07/29 14:59:14;;;;;;;0.45;0.45;;;;;;;;;;5078571;28;20116;-71
2022/07/29 15:01:42;;;;;;;1.05;0.57;;;;;;;;;;5072792;28;20434;-72
2022/07/29 15:04:11;;;;;;;0.50;0.50;;;;;;;;;;5083234;28;20048;-71
2022/07/29 15:06:39;;;;;;;2.60;0.70;;;;;;;;;;5084637;28;20131;-72
2022/07/29 15:09:07;;;;;;;0.90;0.55;;;;;;;;;;5075358;28;20055;-72
2022/07/29 15:11:37;;;;;;;2.92;0.63;;;;;;;;;;5083059;28;20290;-71